Trine Charlotte — LMRY — position and weather

sailwx.info

Track history (hours):
 
Tides and Currents Weather Stations Pressure Air Temp Water Temp Dewpoint Dewpoint Depression Visibility Wind Speed Wind Dir Waves Ship Positions

Trine Charlotte

Last reported at 2015-Jun-28 08:33 UTC. Time now 2015-Jul-04 08:24 UTC.
Position N 65°20' E 012°02'.

Length 66 m.

Type: Cargo ship. MMSI: 257233000.

Date/timePositionNaut miles runAvg speedWind from/ knotsBaromVisibWave heightAir tempDewpointWater temp
2015-Jun-28 08:33N 65°20' E 012°02'9 8.8
2015-Jun-28 07:31N 65°12' E 011°52'8 8.6
2015-Jun-28 06:34N 65°04' E 011°45'9 8.6
2015-Jun-28 05:34N 64°58' E 011°32'9 8.8
2015-Jun-28 04:33N 64°52' E 011°16'9 8.9
2015-Jun-28 03:33N 64°46' E 011°02'49 8.2
2015-Jun-27 21:30N 64°07' E 009°49'8 8.0
2015-Jun-27 20:33N 64°01' E 009°42'8 7.7
2015-Jun-27 19:33N 63°54' E 009°32'8 7.8
2015-Jun-27 18:29N 63°48' E 009°20'  
2015-Jun-22 19:16N 63°10' E 007°43'50 8.8
2015-Jun-22 13:33N 63°39' E 009°15'9 8.8
2015-Jun-22 12:33N 63°48' E 009°20'8 8.5
2015-Jun-22 11:33N 63°54' E 009°33'9 8.8
2015-Jun-22 10:33N 64°01' E 009°45'9 9.0
2015-Jun-22 09:33N 64°06' E 010°01'45 8.4
2015-Jun-22 04:09N 64°44' E 010°57'5 8.7
2015-Jun-22 03:33N 64°48' E 011°06'8 8.2
2015-Jun-22 02:33N 64°54' E 011°20'8 8.4
2015-Jun-22 01:33N 64°59' E 011°35'8 8.2
2015-Jun-22 00:33N 65°05' E 011°47'9 8.7
2015-Jun-21 23:33N 65°14' E 011°54'68 8.5
2015-Jun-21 15:33N 66°17' E 012°56'9 8.8
2015-Jun-21 14:33N 66°25' E 012°59'34 8.2
2015-Jun-21 10:25N 66°57' E 013°29'8 8.3
2015-Jun-21 09:28N 67°01' E 013°45'8 8.7
2015-Jun-21 08:33N 67°07' E 013°60'9 8.6
2015-Jun-21 07:33N 67°15' E 014°09'8 8.4
2015-Jun-21 06:33N 67°21' E 014°22'8 8.3
2015-Jun-21 05:33N 67°29' E 014°29'9 8.4
2015-Jun-21 04:29N 67°38' E 014°31'152 7.6
2015-Jun-20 08:33N 69°37' E 018°54'6 6.4
2015-Jun-20 07:33N 69°42' E 019°05'0 0.0
2015-Jun-20 06:24N 69°42' E 019°05'  
Track history (hours):
 
Tides and Currents Weather Stations Pressure Air Temp Water Temp Dewpoint Dewpoint Depression Visibility Wind Speed Wind Dir Waves Ship Positions

Trine Charlotte

Last reported at 2015-Jun-28 08:33 UTC. Time now 2015-Jul-04 08:24 UTC.
Position N 65°20' E 012°02'.

Length 66 m.

Type: Cargo ship. MMSI: 257233000.

Date/timePositionNaut miles runAvg speedWind from/ knotsBaromVisibWave heightAir tempDewpointWater temp
2015-Jun-28 08:33N 65°20' E 012°02'9 8.8
2015-Jun-28 07:31N 65°12' E 011°52'8 8.6
2015-Jun-28 06:34N 65°04' E 011°45'9 8.6
2015-Jun-28 05:34N 64°58' E 011°32'9 8.8
2015-Jun-28 04:33N 64°52' E 011°16'9 8.9
2015-Jun-28 03:33N 64°46' E 011°02'49 8.2
2015-Jun-27 21:30N 64°07' E 009°49'8 8.0
2015-Jun-27 20:33N 64°01' E 009°42'8 7.7
2015-Jun-27 19:33N 63°54' E 009°32'8 7.8
2015-Jun-27 18:29N 63°48' E 009°20'  
2015-Jun-22 19:16N 63°10' E 007°43'50 8.8
2015-Jun-22 13:33N 63°39' E 009°15'9 8.8
2015-Jun-22 12:33N 63°48' E 009°20'8 8.5
2015-Jun-22 11:33N 63°54' E 009°33'9 8.8
2015-Jun-22 10:33N 64°01' E 009°45'9 9.0
2015-Jun-22 09:33N 64°06' E 010°01'45 8.4
2015-Jun-22 04:09N 64°44' E 010°57'5 8.7
2015-Jun-22 03:33N 64°48' E 011°06'8 8.2
2015-Jun-22 02:33N 64°54' E 011°20'8 8.4
2015-Jun-22 01:33N 64°59' E 011°35'8 8.2
2015-Jun-22 00:33N 65°05' E 011°47'9 8.7
2015-Jun-21 23:33N 65°14' E 011°54'68 8.5
2015-Jun-21 15:33N 66°17' E 012°56'9 8.8
2015-Jun-21 14:33N 66°25' E 012°59'34 8.2
2015-Jun-21 10:25N 66°57' E 013°29'8 8.3
2015-Jun-21 09:28N 67°01' E 013°45'8 8.7
2015-Jun-21 08:33N 67°07' E 013°60'9 8.6
2015-Jun-21 07:33N 67°15' E 014°09'8 8.4
2015-Jun-21 06:33N 67°21' E 014°22'8 8.3
2015-Jun-21 05:33N 67°29' E 014°29'9 8.4
2015-Jun-21 04:29N 67°38' E 014°31'152 7.6
2015-Jun-20 08:33N 69°37' E 018°54'6 6.4
2015-Jun-20 07:33N 69°42' E 019°05'0 0.0
2015-Jun-20 06:24N 69°42' E 019°05'  

Dump ship's entire track history